createdAt,value
2024-03-09T00:01:35.894Z,96154.19
2024-03-09T00:04:02.379Z,96153.63
2024-03-09T00:06:28.805Z,96148.69
2024-03-09T00:08:55.135Z,96133.06
2024-03-09T00:11:21.686Z,96134.56
2024-03-09T00:13:48.140Z,96144.47
2024-03-09T00:16:16.002Z,96133.63
2024-03-09T00:18:45.415Z,96134.75
2024-03-09T00:21:12.388Z,96127.25
2024-03-09T00:23:38.786Z,96126.13
2024-03-09T00:26:07.054Z,96131.63
2024-03-09T00:28:34.043Z,96123.72
2024-03-09T00:31:00.651Z,96108.78
2024-03-09T00:33:27.014Z,96130.19
2024-03-09T00:35:55.487Z,96114.69
2024-03-09T00:38:21.844Z,96139.25
2024-03-09T00:40:48.216Z,96138.59
2024-03-09T00:43:14.575Z,96137.97
2024-03-09T00:45:40.896Z,96141.66
2024-03-09T00:48:08.693Z,96134.72
2024-03-09T00:50:35.081Z,96151.09
2024-03-09T00:53:01.578Z,96149.00
2024-03-09T00:55:28.720Z,96147.00
2024-03-09T00:57:57.008Z,96137.09
2024-03-09T01:00:24.807Z,96136.31
2024-03-09T01:02:51.852Z,96140.81
2024-03-09T01:05:27.630Z,96121.28
2024-03-09T01:07:54.247Z,96135.50
2024-03-09T01:10:20.748Z,96125.88
2024-03-09T01:12:48.515Z,96126.81
2024-03-09T01:15:15.360Z,96137.97
2024-03-09T01:17:41.949Z,96136.06
2024-03-09T01:20:09.438Z,96130.59
2024-03-09T01:22:37.160Z,96126.03
2024-03-09T01:25:03.885Z,96132.63
2024-03-09T01:27:30.298Z,96125.75
2024-03-09T01:30:00.390Z,96100.25
2024-03-09T01:32:28.666Z,96117.09
2024-03-09T01:34:55.457Z,96105.00
2024-03-09T01:37:23.132Z,96100.50
2024-03-09T01:39:53.396Z,96103.28
2024-03-09T01:42:20.077Z,96102.53
2024-03-09T01:44:50.499Z,96110.44
2024-03-09T01:47:19.974Z,96101.28
2024-03-09T01:49:49.151Z,96104.31
2024-03-09T01:52:15.853Z,96100.88
2024-03-09T01:54:43.949Z,96098.41
2024-03-09T01:57:10.907Z,96085.75
2024-03-09T01:59:39.878Z,96086.16
2024-03-09T02:02:07.493Z,96090.22
2024-03-09T02:04:35.934Z,96082.41
2024-03-09T02:07:02.625Z,96082.03
2024-03-09T02:09:29.880Z,96065.69
2024-03-09T02:12:01.833Z,96068.72
2024-03-09T02:14:29.472Z,96069.84
2024-03-09T02:16:56.757Z,96075.38
2024-03-09T02:19:23.173Z,96056.31
2024-03-09T02:21:49.734Z,96065.69
2024-03-09T02:24:21.829Z,96063.19
2024-03-09T02:26:48.645Z,96054.72
2024-03-09T02:29:15.010Z,96048.16
2024-03-09T02:31:42.248Z,96048.25
2024-03-09T02:34:08.732Z,96056.78
2024-03-09T02:36:35.650Z,96052.53
2024-03-09T02:39:03.376Z,96051.84
2024-03-09T02:41:29.751Z,96053.28
2024-03-09T02:43:56.828Z,96050.63
2024-03-09T02:46:26.402Z,96060.13
2024-03-09T02:48:56.785Z,96051.94
2024-03-09T02:51:24.271Z,96043.56
2024-03-09T02:53:53.578Z,96024.44
2024-03-09T02:56:21.022Z,96046.63
2024-03-09T02:58:49.300Z,96037.97
2024-03-09T03:01:17.965Z,96031.59
2024-03-09T03:03:46.347Z,96046.63
2024-03-09T03:06:14.176Z,96039.56
2024-03-09T03:08:40.518Z,96041.97
2024-03-09T03:11:06.915Z,96044.91
2024-03-09T03:13:34.745Z,96037.56
2024-03-09T03:16:01.113Z,96039.19
2024-03-09T03:18:27.448Z,96029.94
2024-03-09T03:20:54.539Z,96038.41
2024-03-09T03:23:20.879Z,96037.56
2024-03-09T03:25:47.286Z,96022.72
2024-03-09T03:28:13.660Z,96036.16
2024-03-09T03:30:40.012Z,96035.66
2024-03-09T03:33:07.145Z,96029.47
2024-03-09T03:35:33.550Z,96024.72
2024-03-09T03:38:00.416Z,96014.03
2024-03-09T03:40:26.877Z,96016.91
2024-03-09T03:42:53.284Z,96025.56
2024-03-09T03:45:19.699Z,96018.06
2024-03-09T03:47:46.831Z,96014.03
2024-03-09T03:50:13.347Z,95991.50
2024-03-09T03:52:40.734Z,96001.75
2024-03-09T03:55:12.990Z,96006.81
2024-03-09T03:57:41.195Z,95994.06
2024-03-09T04:00:10.739Z,96008.44
2024-03-09T04:02:38.384Z,95980.94
2024-03-09T04:05:05.231Z,96005.88
2024-03-09T04:07:31.734Z,96001.19
2024-03-09T04:09:58.117Z,96014.25
2024-03-09T04:12:26.036Z,96000.53
2024-03-09T04:14:54.382Z,96011.09
2024-03-09T04:17:20.708Z,96010.53
2024-03-09T04:19:47.141Z,96012.44
2024-03-09T04:22:14.267Z,96005.09
2024-03-09T04:24:44.525Z,96004.63
2024-03-09T04:27:11.322Z,96005.88
2024-03-09T04:29:38.417Z,96005.66
2024-03-09T04:32:08.473Z,96001.03
2024-03-09T04:34:36.998Z,95985.59
2024-03-09T04:37:06.240Z,96003.09
2024-03-09T04:39:39.526Z,95989.56
2024-03-09T04:42:05.996Z,95991.31
2024-03-09T04:44:33.876Z,95974.25
2024-03-09T04:47:00.492Z,95988.75
2024-03-09T04:49:27.040Z,95977.91
2024-03-09T04:51:53.407Z,95965.31
2024-03-09T04:54:19.885Z,95959.72
2024-03-09T04:56:46.216Z,95964.00
2024-03-09T04:59:12.598Z,95963.81
2024-03-09T05:01:39.044Z,95957.44
2024-03-09T05:04:05.434Z,95961.53
2024-03-09T05:06:34.680Z,95964.09
2024-03-09T05:09:01.020Z,95970.09
2024-03-09T05:11:27.555Z,95956.84
2024-03-09T05:13:54.188Z,95951.03
2024-03-09T05:16:20.606Z,95963.88
2024-03-09T05:18:47.593Z,95958.66
2024-03-09T05:21:14.001Z,95968.75
2024-03-09T05:23:40.908Z,95979.56
2024-03-09T05:26:07.311Z,95969.41
2024-03-09T05:28:33.961Z,95979.38
2024-03-09T05:31:01.120Z,95967.69
2024-03-09T05:33:28.625Z,95962.81
2024-03-09T05:35:55.006Z,95966.38
2024-03-09T05:38:21.486Z,95955.41
2024-03-09T05:40:47.855Z,95943.63
2024-03-09T05:43:14.708Z,95952.00
2024-03-09T05:45:42.338Z,95946.84
2024-03-09T05:48:10.086Z,95947.06
2024-03-09T05:50:38.642Z,95946.06
2024-03-09T05:53:05.698Z,95963.94
2024-03-09T05:55:32.336Z,95950.16
2024-03-09T05:57:59.211Z,95955.28
2024-03-09T06:00:28.832Z,95963.00
2024-03-09T06:02:57.003Z,95958.97
2024-03-09T06:05:24.267Z,95956.91
2024-03-09T06:07:50.785Z,95963.16
2024-03-09T06:10:20.741Z,95963.72
2024-03-09T06:12:48.728Z,95951.44
2024-03-09T06:15:16.527Z,95947.09
2024-03-09T06:17:50.181Z,95952.69
2024-03-09T06:20:18.716Z,95950.22
2024-03-09T06:22:46.972Z,95948.69
2024-03-09T06:25:23.370Z,95975.69
2024-03-09T06:27:53.885Z,95963.44
2024-03-09T06:30:21.004Z,95962.09
2024-03-09T06:32:50.360Z,95954.22
2024-03-09T06:35:20.668Z,95964.03
2024-03-09T06:37:59.956Z,95964.31
2024-03-09T06:40:32.531Z,95966.81
2024-03-09T06:43:00.343Z,95938.44
2024-03-09T06:45:27.748Z,95963.13
2024-03-09T06:47:54.910Z,95949.59
2024-03-09T06:50:21.427Z,95951.78
2024-03-09T06:52:47.894Z,95950.53
2024-03-09T06:55:15.847Z,95969.78
2024-03-09T06:57:42.490Z,95959.50
2024-03-09T07:00:15.276Z,95974.00
2024-03-09T07:02:45.009Z,95969.91
2024-03-09T07:05:11.705Z,95963.16
2024-03-09T07:07:39.157Z,95987.69
2024-03-09T07:10:13.105Z,95987.41
2024-03-09T07:12:42.963Z,95972.00
2024-03-09T07:15:17.265Z,95984.09
2024-03-09T07:17:45.681Z,95982.66
2024-03-09T07:20:14.205Z,95976.59
2024-03-09T07:22:46.073Z,95988.66
2024-03-09T07:25:16.567Z,95975.53
2024-03-09T07:27:44.605Z,95981.03
2024-03-09T07:30:15.237Z,95983.25
2024-03-09T07:32:44.341Z,95961.53
2024-03-09T07:35:15.751Z,95970.84
2024-03-09T07:37:47.129Z,95953.44
2024-03-09T07:40:15.642Z,95955.44
2024-03-09T07:42:42.782Z,95950.75
2024-03-09T07:45:17.315Z,95960.34
2024-03-09T07:47:50.495Z,95957.31
2024-03-09T07:50:22.657Z,95965.09
2024-03-09T07:52:51.718Z,95968.94
2024-03-09T07:55:23.348Z,95977.19
2024-03-09T07:58:04.644Z,95974.69
2024-03-09T08:00:39.801Z,95958.47
2024-03-09T08:03:06.569Z,95971.38
2024-03-09T08:05:32.927Z,95973.97
2024-03-09T08:08:10.348Z,95971.28
2024-03-09T08:10:40.219Z,95963.88
2024-03-09T08:13:06.634Z,95963.34
2024-03-09T08:15:33.664Z,95979.47
2024-03-09T08:18:00.161Z,95955.84
2024-03-09T08:20:27.803Z,95959.03
2024-03-09T08:22:55.236Z,95963.09
2024-03-09T08:25:21.700Z,95952.41
2024-03-09T08:27:48.752Z,95940.78
2024-03-09T08:30:16.948Z,95947.66
2024-03-09T08:32:47.443Z,95938.97
2024-03-09T08:35:16.650Z,95930.56
2024-03-09T08:37:44.495Z,95952.56
2024-03-09T08:40:12.900Z,95949.94
2024-03-09T08:42:39.251Z,95959.25
2024-03-09T08:45:07.726Z,95957.16
2024-03-09T08:47:34.122Z,95957.41
2024-03-09T08:50:00.582Z,95947.69
2024-03-09T08:52:27.252Z,95948.00
2024-03-09T08:54:53.575Z,95945.50
2024-03-09T08:57:19.945Z,95934.50
2024-03-09T08:59:47.141Z,95936.16
2024-03-09T09:02:13.574Z,95945.03
2024-03-09T09:04:40.245Z,95935.09
2024-03-09T09:07:06.946Z,95936.72
2024-03-09T09:09:33.355Z,95927.25
2024-03-09T09:12:01.124Z,95944.16
2024-03-09T09:14:28.417Z,95938.56
2024-03-09T09:16:54.981Z,95939.72
2024-03-09T09:19:23.086Z,95936.72
2024-03-09T09:21:50.197Z,95912.91
2024-03-09T09:24:17.203Z,95900.25
2024-03-09T09:26:44.508Z,95895.09
2024-03-09T09:29:11.692Z,95901.84
2024-03-09T09:31:38.848Z,95892.13
2024-03-09T09:34:05.360Z,95898.13
2024-03-09T09:36:31.704Z,95894.03
2024-03-09T09:39:00.113Z,95892.19
2024-03-09T09:41:30.000Z,95891.16
2024-03-09T09:44:00.070Z,95883.66
2024-03-09T09:46:30.643Z,95891.31
2024-03-09T09:48:58.646Z,95888.78
2024-03-09T09:51:26.743Z,95890.19
2024-03-09T09:53:54.223Z,95891.38
2024-03-09T09:56:23.790Z,95879.66
2024-03-09T09:58:50.709Z,95884.31
2024-03-09T10:01:22.114Z,95885.13
2024-03-09T10:03:49.021Z,95876.47
2024-03-09T10:06:19.715Z,95874.72
2024-03-09T10:08:49.616Z,95869.19
2024-03-09T10:11:16.915Z,95866.47
2024-03-09T10:13:44.938Z,95874.38
2024-03-09T10:16:14.121Z,95859.16
2024-03-09T10:18:42.553Z,95860.34
2024-03-09T10:21:11.246Z,95845.28
2024-03-09T10:23:38.382Z,95847.34
2024-03-09T10:26:11.151Z,95837.31
2024-03-09T10:28:38.493Z,95822.41
2024-03-09T10:31:06.286Z,95837.88
2024-03-09T10:33:37.017Z,95823.41
2024-03-09T10:36:06.954Z,95824.13
2024-03-09T10:38:34.563Z,95826.63
2024-03-09T10:41:07.472Z,95829.72
2024-03-09T10:43:36.859Z,95824.81
2024-03-09T10:46:06.338Z,95840.31
2024-03-09T10:48:34.849Z,95840.94
2024-03-09T10:51:15.629Z,95830.75
2024-03-09T10:54:07.396Z,95828.22
2024-03-09T10:56:33.929Z,95830.97
2024-03-09T10:59:03.200Z,95825.56
2024-03-09T11:01:30.814Z,95819.09
2024-03-09T11:04:00.650Z,95811.97
2024-03-09T11:06:29.600Z,95808.50
2024-03-09T11:08:58.025Z,95805.38
2024-03-09T11:11:26.460Z,95802.50
2024-03-09T11:13:53.076Z,95803.00
2024-03-09T11:16:22.639Z,95808.28
2024-03-09T11:18:56.627Z,95810.19
2024-03-09T11:21:25.048Z,95807.22
2024-03-09T11:23:53.255Z,95797.28
2024-03-09T11:26:26.118Z,95799.06
2024-03-09T11:28:59.256Z,95791.22
2024-03-09T11:31:32.298Z,95777.94
2024-03-09T11:34:14.857Z,95784.13
2024-03-09T11:36:51.792Z,95792.28
2024-03-09T11:39:38.597Z,95786.41
2024-03-09T11:42:10.507Z,95784.31
2024-03-09T11:44:40.768Z,95771.25
2024-03-09T11:47:07.658Z,95771.72
2024-03-09T11:49:35.658Z,95767.44
2024-03-09T11:52:06.483Z,95770.31
2024-03-09T11:54:33.719Z,95761.59
2024-03-09T11:57:00.739Z,95763.44
2024-03-09T11:59:27.487Z,95749.25
2024-03-09T12:02:03.343Z,95750.72
2024-03-09T12:04:33.993Z,95756.31
2024-03-09T12:07:02.220Z,95752.81
2024-03-09T12:09:31.805Z,95745.38
2024-03-09T12:11:58.485Z,95744.41
2024-03-09T12:14:25.112Z,95742.53
2024-03-09T12:16:52.391Z,95732.84
2024-03-09T12:19:19.281Z,95723.16
2024-03-09T12:21:45.862Z,95707.56
2024-03-09T12:24:13.602Z,95722.63
2024-03-09T12:26:40.414Z,95720.09
2024-03-09T12:29:09.077Z,95724.53
2024-03-09T12:31:38.474Z,95741.75
2024-03-09T12:34:06.817Z,95741.56
2024-03-09T12:36:35.224Z,95737.50
2024-03-09T12:39:18.043Z,95721.84
2024-03-09T12:41:51.368Z,95737.19
2024-03-09T12:44:18.088Z,95731.31
2024-03-09T12:46:45.013Z,95727.53
2024-03-09T12:49:14.426Z,95736.91
2024-03-09T12:51:42.327Z,95728.91
2024-03-09T12:54:10.684Z,95730.25
2024-03-09T12:56:39.299Z,95719.84
2024-03-09T12:59:10.142Z,95715.34
2024-03-09T13:01:45.592Z,95722.28
2024-03-09T13:04:12.677Z,95706.78
2024-03-09T13:06:43.875Z,95722.78
2024-03-09T13:09:16.923Z,95706.28
2024-03-09T13:11:48.459Z,95697.66
2024-03-09T13:14:21.611Z,95704.28
2024-03-09T13:16:50.539Z,95687.66
2024-03-09T13:19:18.359Z,95694.56
2024-03-09T13:21:55.106Z,95693.38
2024-03-09T13:24:25.762Z,95679.66
2024-03-09T13:26:52.842Z,95693.81
2024-03-09T13:29:21.628Z,95689.84
2024-03-09T13:31:50.533Z,95685.34
2024-03-09T13:34:17.881Z,95683.16
2024-03-09T13:36:44.468Z,95675.38
2024-03-09T13:39:17.173Z,95672.69
2024-03-09T13:41:45.882Z,95666.72
2024-03-09T13:44:13.437Z,95669.56
2024-03-09T13:46:42.171Z,95669.25
2024-03-09T13:49:15.441Z,95671.50
2024-03-09T13:51:45.352Z,95677.88
2024-03-09T13:54:12.439Z,95675.63
2024-03-09T13:56:38.947Z,95681.63
2024-03-09T13:59:14.380Z,95678.63
2024-03-09T14:01:44.540Z,95686.00
2024-03-09T14:04:12.167Z,95678.13
2024-03-09T14:06:55.991Z,95672.50
2024-03-09T14:09:31.341Z,95673.59
2024-03-09T14:11:57.851Z,95679.22
2024-03-09T14:14:24.376Z,95679.13
2024-03-09T14:16:50.753Z,95675.97
2024-03-09T14:19:18.698Z,95676.09
2024-03-09T14:21:50.265Z,95688.59
2024-03-09T14:24:16.912Z,95670.78
2024-03-09T14:26:43.758Z,95677.19
2024-03-09T14:29:10.325Z,95671.84
2024-03-09T14:31:36.784Z,95682.25
2024-03-09T14:34:04.053Z,95677.59
2024-03-09T14:36:32.910Z,95668.97
2024-03-09T14:38:59.569Z,95676.09
2024-03-09T14:41:27.108Z,95663.88
2024-03-09T14:43:54.263Z,95667.41
2024-03-09T14:46:21.581Z,95650.41
2024-03-09T14:48:54.126Z,95652.16
2024-03-09T14:51:25.725Z,95654.00
2024-03-09T14:53:52.113Z,95654.91
2024-03-09T14:56:18.619Z,95642.91
2024-03-09T14:58:50.092Z,95639.72
2024-03-09T15:01:18.675Z,95648.03
2024-03-09T15:03:47.938Z,95634.94
2024-03-09T15:06:16.019Z,95631.00
2024-03-09T15:08:45.774Z,95632.56
2024-03-09T15:11:18.024Z,95628.53
2024-03-09T15:13:50.725Z,95623.69
2024-03-09T15:16:27.491Z,95618.50
2024-03-09T15:18:54.345Z,95611.09
2024-03-09T15:21:23.674Z,95623.34
2024-03-09T15:23:52.425Z,95617.13
2024-03-09T15:26:20.941Z,95614.59
2024-03-09T15:28:47.915Z,95608.16
2024-03-09T15:31:15.740Z,95611.97
2024-03-09T15:33:43.049Z,95609.13
2024-03-09T15:36:11.803Z,95613.34
2024-03-09T15:38:42.383Z,95619.75
2024-03-09T15:41:12.853Z,95590.97
2024-03-09T15:43:40.500Z,95597.31
2024-03-09T15:46:07.582Z,95593.72
2024-03-09T15:48:34.197Z,95591.13
2024-03-09T15:51:11.157Z,95580.66
2024-03-09T15:53:41.457Z,95589.34
2024-03-09T15:56:08.464Z,95584.41
2024-03-09T15:58:41.366Z,95566.75
2024-03-09T16:01:08.975Z,95571.34
2024-03-09T16:03:36.898Z,95572.84
2024-03-09T16:06:03.427Z,95580.25
2024-03-09T16:08:29.918Z,95581.22
2024-03-09T16:10:57.032Z,95579.22
2024-03-09T16:13:23.568Z,95574.00
2024-03-09T16:15:50.386Z,95581.06
2024-03-09T16:18:17.879Z,95574.63
2024-03-09T16:20:44.536Z,95576.63
2024-03-09T16:23:16.600Z,95579.84
2024-03-09T16:25:48.595Z,95567.31
2024-03-09T16:28:21.942Z,95572.19
2024-03-09T16:30:51.335Z,95569.38
2024-03-09T16:33:18.289Z,95567.31
2024-03-09T16:35:49.970Z,95566.19
2024-03-09T16:38:22.685Z,95562.13
2024-03-09T16:40:50.491Z,95557.66
2024-03-09T16:43:17.887Z,95556.47
2024-03-09T16:45:44.286Z,95557.91
2024-03-09T16:48:12.981Z,95564.94
2024-03-09T16:50:43.063Z,95557.09
2024-03-09T16:53:12.532Z,95576.03
2024-03-09T16:55:40.768Z,95570.34
2024-03-09T16:58:07.757Z,95579.09
2024-03-09T17:00:37.059Z,95573.50
2024-03-09T17:03:10.807Z,95576.03
2024-03-09T17:05:37.218Z,95587.91
2024-03-09T17:08:07.462Z,95585.16
2024-03-09T17:10:37.215Z,95586.91
2024-03-09T17:13:08.464Z,95573.09
2024-03-09T17:15:36.365Z,95579.81
2024-03-09T17:18:05.206Z,95597.22
2024-03-09T17:20:32.103Z,95603.41
2024-03-09T17:23:03.084Z,95597.56
2024-03-09T17:25:31.774Z,95598.16
2024-03-09T17:27:58.149Z,95601.66
2024-03-09T17:30:26.939Z,95599.91
2024-03-09T17:32:57.081Z,95602.84
2024-03-09T17:35:23.747Z,95606.75
2024-03-09T17:37:50.770Z,95598.38
2024-03-09T17:40:17.764Z,95597.47
2024-03-09T17:42:55.945Z,95597.00
2024-03-09T17:45:29.434Z,95593.13
2024-03-09T17:47:56.617Z,95605.44
2024-03-09T17:50:27.389Z,95601.06
2024-03-09T17:52:59.053Z,95594.97
2024-03-09T17:55:29.683Z,95601.50
2024-03-09T17:58:02.237Z,95602.56
2024-03-09T18:00:34.685Z,95598.66
2024-03-09T18:03:02.255Z,95593.13
2024-03-09T18:05:30.918Z,95593.88
2024-03-09T18:08:11.711Z,95594.69
2024-03-09T18:10:41.047Z,95598.06
2024-03-09T18:13:08.821Z,95585.84
2024-03-09T18:15:35.766Z,95590.13
2024-03-09T18:18:09.604Z,95584.91
2024-03-09T18:20:39.390Z,95580.63
2024-03-09T18:23:05.749Z,95582.16
2024-03-09T18:25:34.929Z,95581.41
2024-03-09T18:28:02.237Z,95577.88
2024-03-09T18:30:32.557Z,95577.63
2024-03-09T18:32:59.037Z,95575.97
2024-03-09T18:35:25.591Z,95571.59
2024-03-09T18:37:54.755Z,95588.84
2024-03-09T18:40:23.250Z,95580.72
2024-03-09T18:42:51.135Z,95568.31
2024-03-09T18:45:24.768Z,95579.38
2024-03-09T18:47:54.670Z,95569.75
2024-03-09T18:50:24.343Z,95568.25
2024-03-09T18:52:53.865Z,95569.09
2024-03-09T18:55:21.019Z,95571.34
2024-03-09T18:57:47.631Z,95571.09
2024-03-09T19:00:17.368Z,95564.31
2024-03-09T19:02:48.276Z,95555.88
2024-03-09T19:05:19.136Z,95552.84
2024-03-09T19:07:47.001Z,95542.28
2024-03-09T19:10:14.602Z,95540.06
2024-03-09T19:12:41.054Z,95530.25
2024-03-09T19:15:11.477Z,95541.06
2024-03-09T19:17:42.532Z,95545.75
2024-03-09T19:20:12.631Z,95541.72
2024-03-09T19:22:40.701Z,95533.09
2024-03-09T19:25:12.099Z,95536.63
2024-03-09T19:27:42.731Z,95529.41
2024-03-09T19:30:11.840Z,95539.94
2024-03-09T19:32:38.958Z,95509.31
2024-03-09T19:35:06.356Z,95510.00
2024-03-09T19:37:33.203Z,95512.84
2024-03-09T19:39:59.545Z,95513.44
2024-03-09T19:42:25.883Z,95515.13
2024-03-09T19:44:52.216Z,95506.22
2024-03-09T19:47:19.463Z,95506.41
2024-03-09T19:49:45.905Z,95512.53
2024-03-09T19:52:15.147Z,95511.34
2024-03-09T19:54:43.829Z,95503.97
2024-03-09T19:57:10.169Z,95503.38
2024-03-09T19:59:38.264Z,95492.94
2024-03-09T20:02:06.195Z,95498.41
2024-03-09T20:04:36.832Z,95483.09
2024-03-09T20:07:05.300Z,95485.94
2024-03-09T20:09:31.636Z,95495.31
2024-03-09T20:11:58.195Z,95495.50
2024-03-09T20:14:28.320Z,95493.56
2024-03-09T20:16:54.707Z,95486.44
2024-03-09T20:19:21.085Z,95482.16
2024-03-09T20:21:47.950Z,95469.19
2024-03-09T20:24:16.697Z,95469.84
2024-03-09T20:26:43.061Z,95463.72
2024-03-09T20:29:11.500Z,95474.41
2024-03-09T20:31:37.904Z,95478.03
2024-03-09T20:34:04.268Z,95475.00
2024-03-09T20:36:31.972Z,95481.78
2024-03-09T20:38:58.799Z,95481.16
2024-03-09T20:41:25.206Z,95464.84
2024-03-09T20:43:51.597Z,95463.63
2024-03-09T20:46:18.547Z,95461.03
2024-03-09T20:48:44.969Z,95471.00
2024-03-09T20:51:18.294Z,95471.25
2024-03-09T20:53:48.136Z,95471.63
2024-03-09T20:56:15.729Z,95479.00
2024-03-09T20:58:42.835Z,95477.00
2024-03-09T21:01:10.128Z,95475.50
2024-03-09T21:03:36.545Z,95474.81
2024-03-09T21:06:09.854Z,95467.22
2024-03-09T21:08:36.843Z,95451.22
2024-03-09T21:11:06.511Z,95455.66
2024-03-09T21:13:33.647Z,95454.44
2024-03-09T21:16:03.907Z,95449.34
2024-03-09T21:18:32.961Z,95450.38
2024-03-09T21:20:59.935Z,95446.53
2024-03-09T21:23:26.672Z,95442.06
2024-03-09T21:25:53.152Z,95446.03
2024-03-09T21:28:21.355Z,95431.84
2024-03-09T21:30:49.215Z,95428.69
2024-03-09T21:33:15.631Z,95426.69
2024-03-09T21:35:41.984Z,95417.00
2024-03-09T21:38:08.758Z,95421.78
2024-03-09T21:40:35.174Z,95414.84
2024-03-09T21:43:01.499Z,95413.31
2024-03-09T21:45:28.029Z,95418.91
2024-03-09T21:47:54.681Z,95409.84
2024-03-09T21:50:24.474Z,95400.88
2024-03-09T21:52:51.794Z,95400.53
2024-03-09T21:55:19.683Z,95399.59
2024-03-09T21:57:46.098Z,95377.78
2024-03-09T22:00:23.660Z,95395.16
2024-03-09T22:02:55.163Z,95379.75
2024-03-09T22:05:22.622Z,95384.75
2024-03-09T22:07:49.338Z,95376.56
2024-03-09T22:10:18.188Z,95379.00
2024-03-09T22:12:44.815Z,95366.19
2024-03-09T22:15:13.428Z,95368.31
2024-03-09T22:17:40.371Z,95374.78
2024-03-09T22:20:13.195Z,95367.63
2024-03-09T22:22:42.615Z,95378.72
2024-03-09T22:25:16.219Z,95369.06
2024-03-09T22:27:44.297Z,95366.38
2024-03-09T22:30:12.614Z,95364.13
2024-03-09T22:32:41.222Z,95371.22
2024-03-09T22:35:12.437Z,95367.75
2024-03-09T22:37:41.777Z,95354.09
2024-03-09T22:40:10.833Z,95356.47
2024-03-09T22:42:40.282Z,95352.94
2024-03-09T22:45:08.788Z,95344.03
2024-03-09T22:47:39.449Z,95335.84
2024-03-09T22:50:09.521Z,95333.44
2024-03-09T22:52:36.431Z,95333.78
2024-03-09T22:55:04.968Z,95325.47
2024-03-09T22:57:31.865Z,95332.56
2024-03-09T22:59:58.202Z,95325.59
2024-03-09T23:02:24.636Z,95315.28
2024-03-09T23:04:51.371Z,95312.94
2024-03-09T23:07:18.303Z,95332.63
2024-03-09T23:09:46.207Z,95318.22
2024-03-09T23:12:12.641Z,95324.78
2024-03-09T23:14:40.736Z,95314.94
2024-03-09T23:17:10.569Z,95325.94
2024-03-09T23:19:38.269Z,95304.75
2024-03-09T23:22:06.710Z,95320.47
2024-03-09T23:24:37.668Z,95320.59
2024-03-09T23:27:04.420Z,95314.88
2024-03-09T23:29:33.843Z,95304.13
2024-03-09T23:32:00.984Z,95323.88
2024-03-09T23:34:31.191Z,95316.91
2024-03-09T23:36:58.386Z,95330.63
2024-03-09T23:39:24.850Z,95318.25
2024-03-09T23:41:51.180Z,95324.34
2024-03-09T23:44:17.577Z,95324.84
2024-03-09T23:46:43.987Z,95333.31
2024-03-09T23:49:10.504Z,95341.56
2024-03-09T23:51:37.787Z,95333.06
2024-03-09T23:54:06.096Z,95342.25
2024-03-09T23:56:35.426Z,95339.03
2024-03-09T23:59:02.002Z,95342.09
